sensor_id;sensor_type;location;lat;lon;timestamp;P1;durP1;ratioP1;P2;durP2;ratioP2
62616;SDS011;62539;51.190;6.808;2022-07-29T00:01:33;2.15;;;0.85;;
62616;SDS011;62539;51.190;6.808;2022-07-29T00:03:58;3.78;;;0.90;;
62616;SDS011;62539;51.190;6.808;2022-07-29T00:06:24;2.13;;;0.90;;
62616;SDS011;62539;51.190;6.808;2022-07-29T00:08:49;2.55;;;0.80;;
62616;SDS011;62539;51.190;6.808;2022-07-29T00:11:14;1.25;;;0.80;;
62616;SDS011;62539;51.190;6.808;2022-07-29T00:13:40;3.17;;;0.90;;
62616;SDS011;62539;51.190;6.808;2022-07-29T00:16:05;1.67;;;0.90;;
62616;SDS011;62539;51.190;6.808;2022-07-29T00:18:31;2.65;;;0.90;;
62616;SDS011;62539;51.190;6.808;2022-07-29T00:20:56;2.70;;;0.80;;
62616;SDS011;62539;51.190;6.808;2022-07-29T00:23:22;1.73;;;1.00;;
62616;SDS011;62539;51.190;6.808;2022-07-29T00:25:47;2.10;;;0.93;;
62616;SDS011;62539;51.190;6.808;2022-07-29T00:28:13;4.53;;;1.20;;
62616;SDS011;62539;51.190;6.808;2022-07-29T00:30:38;1.27;;;1.13;;
62616;SDS011;62539;51.190;6.808;2022-07-29T00:33:03;1.35;;;0.98;;
62616;SDS011;62539;51.190;6.808;2022-07-29T00:35:29;1.52;;;0.80;;
62616;SDS011;62539;51.190;6.808;2022-07-29T00:38:10;1.13;;;0.80;;
62616;SDS011;62539;51.190;6.808;2022-07-29T00:40:38;1.35;;;0.95;;
62616;SDS011;62539;51.190;6.808;2022-07-29T00:43:03;2.13;;;0.82;;
62616;SDS011;62539;51.190;6.808;2022-07-29T00:45:29;1.98;;;0.90;;
62616;SDS011;62539;51.190;6.808;2022-07-29T00:47:55;1.80;;;0.82;;
62616;SDS011;62539;51.190;6.808;2022-07-29T00:50:20;1.00;;;0.80;;
62616;SDS011;62539;51.190;6.808;2022-07-29T00:52:47;3.08;;;1.10;;
62616;SDS011;62539;51.190;6.808;2022-07-29T00:55:13;2.58;;;1.02;;
62616;SDS011;62539;51.190;6.808;2022-07-29T00:57:41;1.38;;;0.88;;
62616;SDS011;62539;51.190;6.808;2022-07-29T01:00:09;0.95;;;0.85;;
62616;SDS011;62539;51.190;6.808;2022-07-29T01:02:39;1.08;;;0.93;;
62616;SDS011;62539;51.190;6.808;2022-07-29T01:05:04;1.63;;;1.00;;
62616;SDS011;62539;51.190;6.808;2022-07-29T01:07:32;3.97;;;1.00;;
62616;SDS011;62539;51.190;6.808;2022-07-29T01:10:06;2.25;;;0.95;;
62616;SDS011;62539;51.190;6.808;2022-07-29T01:12:34;1.65;;;0.90;;
62616;SDS011;62539;51.190;6.808;2022-07-29T01:15:03;1.35;;;0.93;;
62616;SDS011;62539;51.190;6.808;2022-07-29T01:17:33;2.47;;;0.90;;
62616;SDS011;62539;51.190;6.808;2022-07-29T01:20:24;1.00;;;0.90;;
62616;SDS011;62539;51.190;6.808;2022-07-29T01:23:11;1.10;;;0.80;;
62616;SDS011;62539;51.190;6.808;2022-07-29T01:29:23;1.40;;;0.75;;
62616;SDS011;62539;51.190;6.808;2022-07-29T01:32:37;1.33;;;1.00;;
62616;SDS011;62539;51.190;6.808;2022-07-29T01:34:54;1.98;;;0.93;;
62616;SDS011;62539;51.190;6.808;2022-07-29T01:37:28;1.23;;;0.90;;
62616;SDS011;62539;51.190;6.808;2022-07-29T01:40:09;1.48;;;0.90;;
62616;SDS011;62539;51.190;6.808;2022-07-29T01:42:54;3.47;;;0.90;;
62616;SDS011;62539;51.190;6.808;2022-07-29T01:45:43;1.15;;;0.90;;
62616;SDS011;62539;51.190;6.808;2022-07-29T01:50:57;1.65;;;0.80;;
62616;SDS011;62539;51.190;6.808;2022-07-29T01:53:31;1.02;;;0.82;;
62616;SDS011;62539;51.190;6.808;2022-07-29T01:56:07;1.48;;;0.80;;
62616;SDS011;62539;51.190;6.808;2022-07-29T01:58:36;1.60;;;0.98;;
62616;SDS011;62539;51.190;6.808;2022-07-29T02:01:08;2.17;;;1.00;;
62616;SDS011;62539;51.190;6.808;2022-07-29T02:03:37;1.35;;;0.75;;
62616;SDS011;62539;51.190;6.808;2022-07-29T02:08:36;2.28;;;0.93;;
62616;SDS011;62539;51.190;6.808;2022-07-29T02:11:04;1.92;;;0.90;;
62616;SDS011;62539;51.190;6.808;2022-07-29T02:13:33;1.73;;;1.10;;
62616;SDS011;62539;51.190;6.808;2022-07-29T02:16:02;2.60;;;0.80;;
62616;SDS011;62539;51.190;6.808;2022-07-29T02:18:31;1.48;;;0.98;;
62616;SDS011;62539;51.190;6.808;2022-07-29T02:23:28;1.48;;;0.90;;
62616;SDS011;62539;51.190;6.808;2022-07-29T02:25:58;2.00;;;0.90;;
62616;SDS011;62539;51.190;6.808;2022-07-29T02:28:28;1.30;;;0.98;;
62616;SDS011;62539;51.190;6.808;2022-07-29T02:30:55;1.77;;;0.98;;
62616;SDS011;62539;51.190;6.808;2022-07-29T02:33:25;2.08;;;0.93;;
62616;SDS011;62539;51.190;6.808;2022-07-29T02:35:54;1.65;;;1.10;;
62616;SDS011;62539;51.190;6.808;2022-07-29T02:38:24;1.23;;;0.85;;
62616;SDS011;62539;51.190;6.808;2022-07-29T02:41:14;1.35;;;0.90;;
62616;SDS011;62539;51.190;6.808;2022-07-29T02:44:12;2.70;;;1.10;;
62616;SDS011;62539;51.190;6.808;2022-07-29T02:47:25;1.65;;;1.00;;
62616;SDS011;62539;51.190;6.808;2022-07-29T02:49:57;2.08;;;0.90;;
62616;SDS011;62539;51.190;6.808;2022-07-29T02:55:43;1.63;;;0.93;;
62616;SDS011;62539;51.190;6.808;2022-07-29T02:58:38;1.90;;;0.90;;
62616;SDS011;62539;51.190;6.808;2022-07-29T03:01:16;1.35;;;0.80;;
62616;SDS011;62539;51.190;6.808;2022-07-29T03:03:53;2.55;;;1.10;;
62616;SDS011;62539;51.190;6.808;2022-07-29T03:06:20;1.50;;;0.98;;
62616;SDS011;62539;51.190;6.808;2022-07-29T03:08:49;4.05;;;1.02;;
62616;SDS011;62539;51.190;6.808;2022-07-29T03:11:16;2.95;;;0.90;;
62616;SDS011;62539;51.190;6.808;2022-07-29T03:13:43;1.23;;;0.98;;
62616;SDS011;62539;51.190;6.808;2022-07-29T03:16:09;1.35;;;1.02;;
62616;SDS011;62539;51.190;6.808;2022-07-29T03:18:37;1.40;;;0.90;;
62616;SDS011;62539;51.190;6.808;2022-07-29T03:21:03;1.13;;;0.80;;
62616;SDS011;62539;51.190;6.808;2022-07-29T03:23:29;3.28;;;0.80;;
62616;SDS011;62539;51.190;6.808;2022-07-29T03:25:55;1.63;;;0.98;;
62616;SDS011;62539;51.190;6.808;2022-07-29T03:28:21;1.63;;;0.90;;
62616;SDS011;62539;51.190;6.808;2022-07-29T03:30:48;3.38;;;0.80;;
62616;SDS011;62539;51.190;6.808;2022-07-29T03:33:14;0.95;;;0.80;;
62616;SDS011;62539;51.190;6.808;2022-07-29T03:35:40;1.67;;;1.00;;
62616;SDS011;62539;51.190;6.808;2022-07-29T03:38:06;0.80;;;0.80;;
62616;SDS011;62539;51.190;6.808;2022-07-29T03:40:35;2.08;;;0.93;;
62616;SDS011;62539;51.190;6.808;2022-07-29T03:43:08;1.42;;;0.88;;
62616;SDS011;62539;51.190;6.808;2022-07-29T03:45:37;2.28;;;0.90;;
62616;SDS011;62539;51.190;6.808;2022-07-29T03:48:08;2.58;;;1.05;;
62616;SDS011;62539;51.190;6.808;2022-07-29T03:50:40;1.27;;;0.82;;
62616;SDS011;62539;51.190;6.808;2022-07-29T03:53:05;1.98;;;1.10;;
62616;SDS011;62539;51.190;6.808;2022-07-29T03:55:37;3.03;;;1.08;;
62616;SDS011;62539;51.190;6.808;2022-07-29T03:58:08;1.63;;;1.17;;
62616;SDS011;62539;51.190;6.808;2022-07-29T04:00:35;1.92;;;0.98;;
62616;SDS011;62539;51.190;6.808;2022-07-29T04:03:02;1.58;;;1.00;;
62616;SDS011;62539;51.190;6.808;2022-07-29T04:05:30;3.28;;;1.00;;
62616;SDS011;62539;51.190;6.808;2022-07-29T04:07:55;1.73;;;0.93;;
62616;SDS011;62539;51.190;6.808;2022-07-29T04:10:21;1.52;;;0.98;;
62616;SDS011;62539;51.190;6.808;2022-07-29T04:12:48;1.17;;;1.00;;
62616;SDS011;62539;51.190;6.808;2022-07-29T04:15:14;2.05;;;1.00;;
62616;SDS011;62539;51.190;6.808;2022-07-29T04:17:39;1.30;;;0.77;;
62616;SDS011;62539;51.190;6.808;2022-07-29T04:20:05;1.20;;;0.90;;
62616;SDS011;62539;51.190;6.808;2022-07-29T04:22:31;1.42;;;0.88;;
62616;SDS011;62539;51.190;6.808;2022-07-29T04:24:56;1.65;;;0.90;;
62616;SDS011;62539;51.190;6.808;2022-07-29T04:27:22;2.20;;;1.00;;
62616;SDS011;62539;51.190;6.808;2022-07-29T04:29:47;2.60;;;0.85;;
62616;SDS011;62539;51.190;6.808;2022-07-29T04:32:12;2.40;;;1.10;;
62616;SDS011;62539;51.190;6.808;2022-07-29T04:34:38;3.10;;;1.00;;
62616;SDS011;62539;51.190;6.808;2022-07-29T04:37:03;1.75;;;1.00;;
62616;SDS011;62539;51.190;6.808;2022-07-29T04:39:29;0.80;;;0.80;;
62616;SDS011;62539;51.190;6.808;2022-07-29T04:41:54;2.38;;;1.05;;
62616;SDS011;62539;51.190;6.808;2022-07-29T04:44:20;1.88;;;0.98;;
62616;SDS011;62539;51.190;6.808;2022-07-29T04:46:45;1.85;;;0.80;;
62616;SDS011;62539;51.190;6.808;2022-07-29T04:49:11;3.03;;;1.25;;
62616;SDS011;62539;51.190;6.808;2022-07-29T04:51:36;3.20;;;1.10;;
62616;SDS011;62539;51.190;6.808;2022-07-29T04:54:02;2.97;;;1.00;;
62616;SDS011;62539;51.190;6.808;2022-07-29T04:56:28;1.40;;;1.00;;
62616;SDS011;62539;51.190;6.808;2022-07-29T04:58:53;1.38;;;1.05;;
62616;SDS011;62539;51.190;6.808;2022-07-29T05:01:19;1.75;;;0.90;;
62616;SDS011;62539;51.190;6.808;2022-07-29T05:03:45;1.50;;;0.90;;
62616;SDS011;62539;51.190;6.808;2022-07-29T05:06:10;2.58;;;1.00;;
62616;SDS011;62539;51.190;6.808;2022-07-29T05:08:36;1.90;;;0.80;;
62616;SDS011;62539;51.190;6.808;2022-07-29T05:11:01;2.53;;;0.90;;
62616;SDS011;62539;51.190;6.808;2022-07-29T05:13:28;1.75;;;0.90;;
62616;SDS011;62539;51.190;6.808;2022-07-29T05:15:54;3.25;;;1.08;;
62616;SDS011;62539;51.190;6.808;2022-07-29T05:18:19;3.55;;;0.93;;
62616;SDS011;62539;51.190;6.808;2022-07-29T05:20:45;1.58;;;1.10;;
62616;SDS011;62539;51.190;6.808;2022-07-29T05:23:10;1.48;;;0.90;;
62616;SDS011;62539;51.190;6.808;2022-07-29T05:25:37;2.03;;;1.20;;
62616;SDS011;62539;51.190;6.808;2022-07-29T05:28:03;1.05;;;0.88;;
62616;SDS011;62539;51.190;6.808;2022-07-29T05:30:29;3.00;;;1.30;;
62616;SDS011;62539;51.190;6.808;2022-07-29T05:32:54;2.15;;;1.02;;
62616;SDS011;62539;51.190;6.808;2022-07-29T05:35:19;1.88;;;0.98;;
62616;SDS011;62539;51.190;6.808;2022-07-29T05:37:45;1.38;;;0.90;;
62616;SDS011;62539;51.190;6.808;2022-07-29T05:40:10;2.72;;;1.08;;
62616;SDS011;62539;51.190;6.808;2022-07-29T05:42:36;2.00;;;0.95;;
62616;SDS011;62539;51.190;6.808;2022-07-29T05:45:02;3.60;;;0.90;;
62616;SDS011;62539;51.190;6.808;2022-07-29T05:47:28;2.08;;;1.00;;
62616;SDS011;62539;51.190;6.808;2022-07-29T05:49:54;5.68;;;1.13;;
62616;SDS011;62539;51.190;6.808;2022-07-29T05:52:19;3.15;;;1.08;;
62616;SDS011;62539;51.190;6.808;2022-07-29T05:54:46;3.25;;;0.98;;
62616;SDS011;62539;51.190;6.808;2022-07-29T05:57:15;6.10;;;1.08;;
62616;SDS011;62539;51.190;6.808;2022-07-29T05:59:45;2.22;;;1.20;;
62616;SDS011;62539;51.190;6.808;2022-07-29T06:02:12;2.67;;;1.10;;
62616;SDS011;62539;51.190;6.808;2022-07-29T06:04:37;4.43;;;1.35;;
62616;SDS011;62539;51.190;6.808;2022-07-29T06:07:03;1.42;;;0.98;;
62616;SDS011;62539;51.190;6.808;2022-07-29T06:09:29;3.78;;;1.27;;
62616;SDS011;62539;51.190;6.808;2022-07-29T06:11:54;4.47;;;0.90;;
62616;SDS011;62539;51.190;6.808;2022-07-29T06:14:20;4.45;;;1.40;;
62616;SDS011;62539;51.190;6.808;2022-07-29T06:16:45;6.68;;;1.30;;
62616;SDS011;62539;51.190;6.808;2022-07-29T06:19:10;3.42;;;1.50;;
62616;SDS011;62539;51.190;6.808;2022-07-29T06:21:36;4.07;;;1.77;;
62616;SDS011;62539;51.190;6.808;2022-07-29T06:26:32;6.15;;;1.48;;
62616;SDS011;62539;51.190;6.808;2022-07-29T06:28:58;3.90;;;1.48;;
62616;SDS011;62539;51.190;6.808;2022-07-29T06:31:23;4.80;;;1.80;;
62616;SDS011;62539;51.190;6.808;2022-07-29T06:33:49;12.90;;;1.40;;
62616;SDS011;62539;51.190;6.808;2022-07-29T06:36:15;6.00;;;1.35;;
62616;SDS011;62539;51.190;6.808;2022-07-29T06:38:40;5.18;;;1.35;;
62616;SDS011;62539;51.190;6.808;2022-07-29T06:41:05;9.68;;;1.70;;
62616;SDS011;62539;51.190;6.808;2022-07-29T06:43:38;4.78;;;1.55;;
62616;SDS011;62539;51.190;6.808;2022-07-29T06:46:13;12.70;;;1.27;;
62616;SDS011;62539;51.190;6.808;2022-07-29T06:48:42;7.40;;;1.70;;
62616;SDS011;62539;51.190;6.808;2022-07-29T06:51:08;4.30;;;1.30;;
62616;SDS011;62539;51.190;6.808;2022-07-29T06:53:35;6.80;;;1.67;;
62616;SDS011;62539;51.190;6.808;2022-07-29T06:56:04;4.88;;;1.25;;
62616;SDS011;62539;51.190;6.808;2022-07-29T06:58:33;7.53;;;1.33;;
62616;SDS011;62539;51.190;6.808;2022-07-29T07:01:03;6.25;;;1.55;;
62616;SDS011;62539;51.190;6.808;2022-07-29T07:03:31;7.95;;;1.35;;
62616;SDS011;62539;51.190;6.808;2022-07-29T07:05:57;7.15;;;1.70;;
62616;SDS011;62539;51.190;6.808;2022-07-29T07:08:23;5.18;;;1.60;;
62616;SDS011;62539;51.190;6.808;2022-07-29T07:10:49;3.17;;;1.38;;
62616;SDS011;62539;51.190;6.808;2022-07-29T07:13:16;6.00;;;1.80;;
62616;SDS011;62539;51.190;6.808;2022-07-29T07:15:44;5.45;;;1.45;;
62616;SDS011;62539;51.190;6.808;2022-07-29T07:18:12;4.75;;;1.48;;
62616;SDS011;62539;51.190;6.808;2022-07-29T07:20:39;4.43;;;1.55;;
62616;SDS011;62539;51.190;6.808;2022-07-29T07:23:05;8.48;;;1.85;;
62616;SDS011;62539;51.190;6.808;2022-07-29T07:25:31;2.70;;;1.17;;
62616;SDS011;62539;51.190;6.808;2022-07-29T07:27:57;8.18;;;1.50;;
62616;SDS011;62539;51.190;6.808;2022-07-29T07:30:22;2.42;;;1.23;;
62616;SDS011;62539;51.190;6.808;2022-07-29T07:32:48;4.80;;;1.30;;
62616;SDS011;62539;51.190;6.808;2022-07-29T07:35:14;4.70;;;1.08;;
62616;SDS011;62539;51.190;6.808;2022-07-29T07:37:39;4.88;;;1.17;;
62616;SDS011;62539;51.190;6.808;2022-07-29T07:40:08;1.75;;;1.10;;
62616;SDS011;62539;51.190;6.808;2022-07-29T07:42:36;2.80;;;1.40;;
62616;SDS011;62539;51.190;6.808;2022-07-29T07:45:03;3.75;;;1.35;;
62616;SDS011;62539;51.190;6.808;2022-07-29T07:47:30;3.33;;;1.40;;
62616;SDS011;62539;51.190;6.808;2022-07-29T07:49:56;5.57;;;1.33;;
62616;SDS011;62539;51.190;6.808;2022-07-29T07:52:22;4.20;;;1.60;;
62616;SDS011;62539;51.190;6.808;2022-07-29T07:54:48;4.50;;;1.27;;
62616;SDS011;62539;51.190;6.808;2022-07-29T07:57:14;4.40;;;1.10;;
62616;SDS011;62539;51.190;6.808;2022-07-29T07:59:40;5.88;;;1.25;;
62616;SDS011;62539;51.190;6.808;2022-07-29T08:02:07;6.60;;;1.50;;
62616;SDS011;62539;51.190;6.808;2022-07-29T08:04:34;3.20;;;1.25;;
62616;SDS011;62539;51.190;6.808;2022-07-29T08:06:59;8.23;;;1.38;;
62616;SDS011;62539;51.190;6.808;2022-07-29T08:09:26;10.57;;;1.60;;
62616;SDS011;62539;51.190;6.808;2022-07-29T08:11:53;6.20;;;1.40;;
62616;SDS011;62539;51.190;6.808;2022-07-29T08:14:20;1.98;;;1.10;;
62616;SDS011;62539;51.190;6.808;2022-07-29T08:16:45;1.85;;;1.13;;
62616;SDS011;62539;51.190;6.808;2022-07-29T08:19:11;3.80;;;1.30;;
62616;SDS011;62539;51.190;6.808;2022-07-29T08:21:37;3.22;;;1.23;;
62616;SDS011;62539;51.190;6.808;2022-07-29T08:24:03;2.60;;;1.33;;
62616;SDS011;62539;51.190;6.808;2022-07-29T08:26:48;7.97;;;1.42;;
62616;SDS011;62539;51.190;6.808;2022-07-29T08:29:13;8.85;;;1.30;;
62616;SDS011;62539;51.190;6.808;2022-07-29T08:31:39;5.43;;;1.50;;
62616;SDS011;62539;51.190;6.808;2022-07-29T08:34:05;2.63;;;1.05;;
62616;SDS011;62539;51.190;6.808;2022-07-29T08:36:32;2.25;;;1.30;;
62616;SDS011;62539;51.190;6.808;2022-07-29T08:38:59;5.05;;;1.60;;
62616;SDS011;62539;51.190;6.808;2022-07-29T08:41:25;2.20;;;1.17;;
62616;SDS011;62539;51.190;6.808;2022-07-29T08:43:51;2.20;;;1.10;;
62616;SDS011;62539;51.190;6.808;2022-07-29T08:46:17;4.78;;;1.33;;
62616;SDS011;62539;51.190;6.808;2022-07-29T08:48:45;4.38;;;1.30;;
62616;SDS011;62539;51.190;6.808;2022-07-29T08:51:15;6.78;;;1.10;;
62616;SDS011;62539;51.190;6.808;2022-07-29T08:53:45;2.13;;;1.27;;
62616;SDS011;62539;51.190;6.808;2022-07-29T08:56:14;2.53;;;1.30;;
62616;SDS011;62539;51.190;6.808;2022-07-29T08:58:42;2.63;;;1.15;;
62616;SDS011;62539;51.190;6.808;2022-07-29T09:01:07;1.55;;;1.02;;
62616;SDS011;62539;51.190;6.808;2022-07-29T09:03:36;4.28;;;1.10;;
62616;SDS011;62539;51.190;6.808;2022-07-29T09:06:04;3.50;;;1.10;;
62616;SDS011;62539;51.190;6.808;2022-07-29T09:08:30;2.70;;;1.25;;
62616;SDS011;62539;51.190;6.808;2022-07-29T09:10:57;1.48;;;1.08;;
62616;SDS011;62539;51.190;6.808;2022-07-29T09:13:24;2.13;;;1.20;;
62616;SDS011;62539;51.190;6.808;2022-07-29T09:15:51;2.60;;;1.15;;
62616;SDS011;62539;51.190;6.808;2022-07-29T09:21:01;2.90;;;1.33;;
62616;SDS011;62539;51.190;6.808;2022-07-29T09:26:37;3.83;;;1.52;;
62616;SDS011;62539;51.190;6.808;2022-07-29T09:29:16;3.92;;;1.23;;
62616;SDS011;62539;51.190;6.808;2022-07-29T09:31:48;3.88;;;1.30;;
62616;SDS011;62539;51.190;6.808;2022-07-29T09:34:20;3.47;;;1.35;;
62616;SDS011;62539;51.190;6.808;2022-07-29T09:36:52;2.15;;;1.23;;
62616;SDS011;62539;51.190;6.808;2022-07-29T09:39:30;2.80;;;1.17;;
62616;SDS011;62539;51.190;6.808;2022-07-29T09:42:00;3.35;;;1.27;;
62616;SDS011;62539;51.190;6.808;2022-07-29T09:44:48;1.75;;;1.10;;
62616;SDS011;62539;51.190;6.808;2022-07-29T09:47:15;1.73;;;1.00;;
62616;SDS011;62539;51.190;6.808;2022-07-29T09:52:27;2.30;;;1.20;;
62616;SDS011;62539;51.190;6.808;2022-07-29T09:57:34;1.52;;;1.23;;
62616;SDS011;62539;51.190;6.808;2022-07-29T10:00:00;1.52;;;1.05;;
62616;SDS011;62539;51.190;6.808;2022-07-29T10:02:38;3.63;;;1.20;;
62616;SDS011;62539;51.190;6.808;2022-07-29T10:05:15;2.05;;;1.15;;
62616;SDS011;62539;51.190;6.808;2022-07-29T10:07:47;3.58;;;1.08;;
62616;SDS011;62539;51.190;6.808;2022-07-29T10:10:21;1.65;;;1.00;;
62616;SDS011;62539;51.190;6.808;2022-07-29T10:12:52;1.85;;;1.05;;
62616;SDS011;62539;51.190;6.808;2022-07-29T10:15:26;1.25;;;0.98;;
62616;SDS011;62539;51.190;6.808;2022-07-29T10:17:57;4.20;;;1.38;;
62616;SDS011;62539;51.190;6.808;2022-07-29T10:20:25;1.95;;;1.00;;
62616;SDS011;62539;51.190;6.808;2022-07-29T10:22:52;4.18;;;1.45;;
62616;SDS011;62539;51.190;6.808;2022-07-29T10:25:18;1.55;;;1.05;;
62616;SDS011;62539;51.190;6.808;2022-07-29T10:27:45;1.65;;;1.20;;
62616;SDS011;62539;51.190;6.808;2022-07-29T10:30:13;1.15;;;1.00;;
62616;SDS011;62539;51.190;6.808;2022-07-29T10:42:06;2.38;;;1.10;;
62616;SDS011;62539;51.190;6.808;2022-07-29T10:44:43;1.88;;;1.20;;
62616;SDS011;62539;51.190;6.808;2022-07-29T10:47:25;2.03;;;1.10;;
62616;SDS011;62539;51.190;6.808;2022-07-29T10:49:56;2.88;;;1.10;;
62616;SDS011;62539;51.190;6.808;2022-07-29T10:58:17;9.38;;;1.40;;
62616;SDS011;62539;51.190;6.808;2022-07-29T11:00:46;1.83;;;1.17;;
62616;SDS011;62539;51.190;6.808;2022-07-29T11:06:10;2.75;;;1.13;;
62616;SDS011;62539;51.190;6.808;2022-07-29T11:08:36;2.42;;;1.20;;
62616;SDS011;62539;51.190;6.808;2022-07-29T11:13:48;4.00;;;1.38;;
62616;SDS011;62539;51.190;6.808;2022-07-29T11:16:17;3.80;;;1.42;;
62616;SDS011;62539;51.190;6.808;2022-07-29T11:21:50;1.70;;;1.20;;
62616;SDS011;62539;51.190;6.808;2022-07-29T11:24:18;2.13;;;1.27;;
62616;SDS011;62539;51.190;6.808;2022-07-29T11:27:08;1.63;;;0.95;;
62616;SDS011;62539;51.190;6.808;2022-07-29T11:29:52;1.85;;;1.20;;
62616;SDS011;62539;51.190;6.808;2022-07-29T11:32:20;1.77;;;1.00;;
62616;SDS011;62539;51.190;6.808;2022-07-29T11:43:58;1.83;;;1.00;;
62616;SDS011;62539;51.190;6.808;2022-07-29T11:49:10;4.85;;;1.10;;
62616;SDS011;62539;51.190;6.808;2022-07-29T11:51:37;2.95;;;1.00;;
62616;SDS011;62539;51.190;6.808;2022-07-29T11:54:04;1.63;;;0.90;;
62616;SDS011;62539;51.190;6.808;2022-07-29T11:56:33;1.90;;;1.10;;
62616;SDS011;62539;51.190;6.808;2022-07-29T11:59:08;3.03;;;1.10;;
62616;SDS011;62539;51.190;6.808;2022-07-29T12:01:35;2.95;;;1.05;;
62616;SDS011;62539;51.190;6.808;2022-07-29T12:04:07;2.53;;;1.10;;
62616;SDS011;62539;51.190;6.808;2022-07-29T12:06:33;1.45;;;1.00;;
62616;SDS011;62539;51.190;6.808;2022-07-29T12:08:59;1.33;;;1.08;;
62616;SDS011;62539;51.190;6.808;2022-07-29T12:11:26;1.83;;;1.10;;
62616;SDS011;62539;51.190;6.808;2022-07-29T12:13:52;1.00;;;0.90;;
62616;SDS011;62539;51.190;6.808;2022-07-29T12:16:18;2.95;;;1.10;;
62616;SDS011;62539;51.190;6.808;2022-07-29T12:18:58;1.52;;;1.00;;
62616;SDS011;62539;51.190;6.808;2022-07-29T12:23:52;1.48;;;1.10;;
62616;SDS011;62539;51.190;6.808;2022-07-29T12:26:21;2.17;;;0.98;;
62616;SDS011;62539;51.190;6.808;2022-07-29T12:28:47;6.60;;;1.00;;
62616;SDS011;62539;51.190;6.808;2022-07-29T12:31:13;5.38;;;1.30;;
62616;SDS011;62539;51.190;6.808;2022-07-29T12:33:40;5.13;;;1.00;;
62616;SDS011;62539;51.190;6.808;2022-07-29T12:36:07;3.85;;;1.38;;
62616;SDS011;62539;51.190;6.808;2022-07-29T12:38:33;6.85;;;1.25;;
62616;SDS011;62539;51.190;6.808;2022-07-29T12:41:00;1.63;;;1.00;;
62616;SDS011;62539;51.190;6.808;2022-07-29T12:43:28;1.92;;;1.10;;
62616;SDS011;62539;51.190;6.808;2022-07-29T12:45:54;3.30;;;1.17;;
62616;SDS011;62539;51.190;6.808;2022-07-29T12:51:04;2.67;;;1.08;;
62616;SDS011;62539;51.190;6.808;2022-07-29T12:53:32;11.52;;;1.90;;
62616;SDS011;62539;51.190;6.808;2022-07-29T12:55:58;15.20;;;2.50;;
62616;SDS011;62539;51.190;6.808;2022-07-29T12:58:27;12.23;;;2.45;;
62616;SDS011;62539;51.190;6.808;2022-07-29T13:01:00;13.75;;;2.50;;
62616;SDS011;62539;51.190;6.808;2022-07-29T13:03:43;8.27;;;2.20;;
62616;SDS011;62539;51.190;6.808;2022-07-29T13:06:35;9.27;;;2.00;;
62616;SDS011;62539;51.190;6.808;2022-07-29T13:09:06;6.57;;;2.20;;
62616;SDS011;62539;51.190;6.808;2022-07-29T13:11:48;6.38;;;1.90;;
62616;SDS011;62539;51.190;6.808;2022-07-29T13:17:11;5.22;;;1.75;;
62616;SDS011;62539;51.190;6.808;2022-07-29T13:19:51;3.45;;;1.83;;
62616;SDS011;62539;51.190;6.808;2022-07-29T13:22:30;7.55;;;1.70;;
62616;SDS011;62539;51.190;6.808;2022-07-29T13:27:29;5.68;;;2.05;;
62616;SDS011;62539;51.190;6.808;2022-07-29T13:29:58;3.65;;;1.67;;
62616;SDS011;62539;51.190;6.808;2022-07-29T13:32:26;5.03;;;2.08;;
62616;SDS011;62539;51.190;6.808;2022-07-29T13:34:57;8.75;;;1.65;;
62616;SDS011;62539;51.190;6.808;2022-07-29T13:37:25;8.65;;;1.90;;
62616;SDS011;62539;51.190;6.808;2022-07-29T13:39:51;4.85;;;1.70;;
62616;SDS011;62539;51.190;6.808;2022-07-29T13:42:17;4.78;;;1.90;;
62616;SDS011;62539;51.190;6.808;2022-07-29T13:44:43;7.13;;;1.80;;
62616;SDS011;62539;51.190;6.808;2022-07-29T13:47:08;3.20;;;1.52;;
62616;SDS011;62539;51.190;6.808;2022-07-29T13:49:34;8.48;;;1.92;;
62616;SDS011;62539;51.190;6.808;2022-07-29T13:52:00;5.55;;;1.42;;
62616;SDS011;62539;51.190;6.808;2022-07-29T13:54:26;3.92;;;1.60;;
62616;SDS011;62539;51.190;6.808;2022-07-29T13:56:51;6.22;;;1.77;;
62616;SDS011;62539;51.190;6.808;2022-07-29T13:59:17;4.10;;;1.55;;
62616;SDS011;62539;51.190;6.808;2022-07-29T14:01:43;6.65;;;2.10;;
62616;SDS011;62539;51.190;6.808;2022-07-29T14:04:09;5.65;;;2.10;;
62616;SDS011;62539;51.190;6.808;2022-07-29T14:06:35;7.13;;;2.25;;
62616;SDS011;62539;51.190;6.808;2022-07-29T14:09:02;14.48;;;2.97;;
62616;SDS011;62539;51.190;6.808;2022-07-29T14:11:31;7.97;;;3.03;;
62616;SDS011;62539;51.190;6.808;2022-07-29T14:13:57;9.32;;;3.20;;
62616;SDS011;62539;51.190;6.808;2022-07-29T14:16:23;10.80;;;3.72;;
62616;SDS011;62539;51.190;6.808;2022-07-29T14:18:48;11.88;;;3.38;;
62616;SDS011;62539;51.190;6.808;2022-07-29T14:21:13;8.45;;;3.10;;
62616;SDS011;62539;51.190;6.808;2022-07-29T14:23:39;6.22;;;3.20;;
62616;SDS011;62539;51.190;6.808;2022-07-29T14:26:05;7.53;;;2.85;;
62616;SDS011;62539;51.190;6.808;2022-07-29T14:28:31;8.10;;;3.05;;
62616;SDS011;62539;51.190;6.808;2022-07-29T14:30:57;9.45;;;2.70;;
62616;SDS011;62539;51.190;6.808;2022-07-29T14:33:22;9.73;;;2.90;;
62616;SDS011;62539;51.190;6.808;2022-07-29T14:35:48;13.27;;;2.70;;
62616;SDS011;62539;51.190;6.808;2022-07-29T14:38:13;10.32;;;2.85;;
62616;SDS011;62539;51.190;6.808;2022-07-29T14:40:39;8.07;;;2.60;;
62616;SDS011;62539;51.190;6.808;2022-07-29T14:43:05;6.85;;;2.58;;
62616;SDS011;62539;51.190;6.808;2022-07-29T14:45:30;7.10;;;2.60;;
62616;SDS011;62539;51.190;6.808;2022-07-29T14:47:56;10.98;;;3.55;;
62616;SDS011;62539;51.190;6.808;2022-07-29T14:50:22;10.38;;;3.83;;
62616;SDS011;62539;51.190;6.808;2022-07-29T14:52:47;12.35;;;3.60;;
62616;SDS011;62539;51.190;6.808;2022-07-29T14:55:13;10.50;;;3.22;;
62616;SDS011;62539;51.190;6.808;2022-07-29T14:57:39;11.13;;;3.53;;
62616;SDS011;62539;51.190;6.808;2022-07-29T15:00:05;9.48;;;3.40;;
62616;SDS011;62539;51.190;6.808;2022-07-29T15:02:32;8.68;;;3.22;;
62616;SDS011;62539;51.190;6.808;2022-07-29T15:04:58;12.00;;;3.35;;
62616;SDS011;62539;51.190;6.808;2022-07-29T15:07:24;11.98;;;3.80;;
62616;SDS011;62539;51.190;6.808;2022-07-29T15:09:49;15.57;;;3.40;;
62616;SDS011;62539;51.190;6.808;2022-07-29T15:12:14;6.10;;;3.10;;
62616;SDS011;62539;51.190;6.808;2022-07-29T15:14:40;14.75;;;3.25;;
62616;SDS011;62539;51.190;6.808;2022-07-29T15:17:06;11.15;;;3.33;;
62616;SDS011;62539;51.190;6.808;2022-07-29T15:19:31;9.13;;;3.20;;
62616;SDS011;62539;51.190;6.808;2022-07-29T15:21:57;10.05;;;3.00;;
62616;SDS011;62539;51.190;6.808;2022-07-29T15:24:23;12.90;;;3.60;;
62616;SDS011;62539;51.190;6.808;2022-07-29T15:26:48;10.32;;;3.60;;
62616;SDS011;62539;51.190;6.808;2022-07-29T15:29:14;13.43;;;3.40;;
62616;SDS011;62539;51.190;6.808;2022-07-29T15:31:41;7.47;;;3.30;;
62616;SDS011;62539;51.190;6.808;2022-07-29T15:34:07;9.40;;;3.63;;
62616;SDS011;62539;51.190;6.808;2022-07-29T15:36:33;7.50;;;2.70;;
62616;SDS011;62539;51.190;6.808;2022-07-29T15:38:59;8.85;;;3.40;;
62616;SDS011;62539;51.190;6.808;2022-07-29T15:41:24;10.02;;;3.08;;
62616;SDS011;62539;51.190;6.808;2022-07-29T15:43:50;4.80;;;2.63;;
62616;SDS011;62539;51.190;6.808;2022-07-29T15:46:16;10.55;;;2.70;;
62616;SDS011;62539;51.190;6.808;2022-07-29T15:49:02;6.55;;;2.45;;
62616;SDS011;62539;51.190;6.808;2022-07-29T15:51:29;7.60;;;2.47;;
62616;SDS011;62539;51.190;6.808;2022-07-29T15:53:55;13.25;;;2.72;;
62616;SDS011;62539;51.190;6.808;2022-07-29T15:56:21;8.20;;;2.30;;
62616;SDS011;62539;51.190;6.808;2022-07-29T15:58:47;5.95;;;1.95;;
62616;SDS011;62539;51.190;6.808;2022-07-29T16:01:13;10.32;;;2.42;;
62616;SDS011;62539;51.190;6.808;2022-07-29T16:03:38;8.50;;;2.88;;
62616;SDS011;62539;51.190;6.808;2022-07-29T16:06:04;7.40;;;2.45;;
62616;SDS011;62539;51.190;6.808;2022-07-29T16:08:30;10.05;;;2.60;;